Time;durP1;ratioP1;P1;durP2;ratioP2;P2;SDS_P1;SDS_P2;PMS_P1;PMS_P2;Temp;Humidity;BMP_temperature;BMP_pressure;BME280_temperature;BME280_humidity;BME280_pressure;Samples;Min_cycle;Max_cycle;Signal;HPM_P1;HPM_P2
2021/11/17 02:26:16;;;;;;;65.07;30.75;;;;;;;;;;10502344;28;20290;-76
2021/11/17 02:31:25;;;;;;;54.75;33.78;;;;;;;;;;10484782;28;20060;-76
2021/11/17 02:36:44;;;;;;;57.38;29.35;;;;;;;;;;10502275;28;20039;-76
2021/11/17 02:41:45;;;;;;;56.03;30.42;;;;;;;;;;10502284;28;20052;-77
2021/11/17 02:46:45;;;;;;;60.63;34.67;;;;;;;;;;10502616;28;20048;-76
2021/11/17 02:51:54;;;;;;;54.10;32.30;;;;;;;;;;10502195;28;20344;-77
2021/11/17 02:56:57;;;;;;;53.40;30.67;;;;;;;;;;10502126;28;20028;-76
2021/11/17 03:02:00;;;;;;;46.40;27.42;;;;;;;;;;10501820;28;20363;-77
2021/11/17 03:07:07;;;;;;;59.05;30.52;;;;;;;;;;10501234;28;20056;-76
2021/11/17 03:12:10;;;;;;;69.28;32.33;;;;;;;;;;10500968;28;20021;-76
2021/11/17 03:17:13;;;;;;;64.72;34.47;;;;;;;;;;10500969;28;20071;-76
2021/11/17 03:22:13;;;;;;;52.50;31.30;;;;;;;;;;10482894;28;20024;-77
2021/11/17 03:27:13;;;;;;;57.80;31.60;;;;;;;;;;10501222;28;20039;-77
2021/11/17 03:32:32;;;;;;;56.50;31.23;;;;;;;;;;10505052;28;20265;-77
2021/11/17 03:37:39;;;;;;;64.18;35.47;;;;;;;;;;10525582;28;20112;-76
2021/11/17 03:42:39;;;;;;;;;;;;;;;;;;10500769;28;20051;-76
2021/11/17 03:47:46;;;;;;;59.22;30.98;;;;;;;;;;10499602;28;19917;-76
2021/11/17 03:52:52;;;;;;;61.92;36.40;;;;;;;;;;10499425;28;20443;-76
2021/11/17 03:58:04;;;;;;;65.90;33.22;;;;;;;;;;10498639;28;20431;-76
2021/11/17 04:03:28;;;;;;;50.40;28.90;;;;;;;;;;10499126;28;20384;-76
2021/11/17 04:08:31;;;;;;;61.72;32.75;;;;;;;;;;10487912;28;20057;-76
2021/11/17 04:13:45;;;;;;;57.03;31.27;;;;;;;;;;10500208;28;20050;-76
2021/11/17 04:19:03;;;;;;;65.38;34.22;;;;;;;;;;10498507;28;20059;-76
2021/11/17 04:24:06;;;;;;;54.33;34.40;;;;;;;;;;10479998;28;20024;-76
2021/11/17 04:29:09;;;;;;;55.63;34.05;;;;;;;;;;10497567;28;20021;-76
2021/11/17 04:34:13;;;;;;;63.88;35.20;;;;;;;;;;10479915;28;20115;-76
2021/11/17 04:39:31;;;;;;;71.20;36.20;;;;;;;;;;10497973;28;20477;-76
2021/11/17 04:44:34;;;;;;;50.90;32.33;;;;;;;;;;10497847;28;20388;-76
2021/11/17 04:49:44;;;;;;;57.50;33.75;;;;;;;;;;10498478;28;20553;-76
2021/11/17 04:54:56;;;;;;;57.92;34.40;;;;;;;;;;10496819;28;20484;-76
2021/11/17 05:00:05;;;;;;;60.25;34.47;;;;;;;;;;10498105;28;20052;-76
2021/11/17 05:05:24;;;;;;;58.85;36.53;;;;;;;;;;10497292;28;20049;-76
2021/11/17 05:10:40;;;;;;;55.85;33.78;;;;;;;;;;10497544;28;20028;-77
2021/11/17 05:15:44;;;;;;;55.72;35.15;;;;;;;;;;10496975;28;20036;-77
2021/11/17 05:21:03;;;;;;;61.00;35.53;;;;;;;;;;10497560;28;20032;-76
2021/11/17 05:26:22;;;;;;;54.65;30.30;;;;;;;;;;10480220;28;20024;-77
2021/11/17 05:31:23;;;;;;;53.20;32.85;;;;;;;;;;10496961;28;20052;-76
2021/11/17 05:36:23;;;;;;;71.30;36.90;;;;;;;;;;10497095;28;20063;-78
2021/11/17 05:41:30;;;;;;;64.32;35.30;;;;;;;;;;10486787;28;20024;-80
2021/11/17 05:46:30;;;;;;;;;;;;;;;;;;10505003;28;20016;-80
2021/11/17 05:51:39;;;;;;;64.88;37.40;;;;;;;;;;10505147;28;19909;-80
2021/11/17 05:56:42;;;;;;;58.28;34.00;;;;;;;;;;10503964;28;20094;-80
2021/11/17 06:02:02;;;;;;;59.97;32.92;;;;;;;;;;10504541;28;20024;-77
2021/11/17 06:07:03;;;;;;;68.28;37.28;;;;;;;;;;10490395;28;20143;-76
2021/11/17 06:12:14;;;;;;;80.60;36.85;;;;;;;;;;10551001;28;20048;-76
2021/11/17 06:17:16;;;;;;;61.08;34.33;;;;;;;;;;10526942;28;20491;-76
2021/11/17 06:22:18;;;;;;;79.95;40.22;;;;;;;;;;10526827;28;20024;-77
2021/11/17 06:27:19;;;;;;;61.80;34.95;;;;;;;;;;10544200;28;20031;-77
2021/11/17 06:32:19;;;;;;;74.00;39.88;;;;;;;;;;10526469;28;20442;-77
2021/11/17 06:37:22;;;;;;;61.92;35.47;;;;;;;;;;10544554;28;20028;-77
2021/11/17 06:42:42;;;;;;;63.88;33.65;;;;;;;;;;10544643;28;20024;-77
2021/11/17 06:47:43;;;;;;;69.20;35.38;;;;;;;;;;10543846;28;20039;-78
2021/11/17 06:52:43;;;;;;;78.28;36.78;;;;;;;;;;10543564;28;20028;-80
2021/11/17 06:57:43;;;;;;;67.05;37.13;;;;;;;;;;10543142;28;20075;-82
2021/11/17 07:02:43;;;;;;;64.25;36.25;;;;;;;;;;10525234;28;20106;-80
2021/11/17 07:07:43;;;;;;;53.47;32.83;;;;;;;;;;10542856;28;20064;-79
2021/11/17 07:12:44;;;;;;;72.75;37.60;;;;;;;;;;10542808;28;20073;-78
2021/11/17 07:17:44;;;;;;;66.65;36.05;;;;;;;;;;10542596;28;20484;-78
2021/11/17 07:22:44;;;;;;;64.30;35.70;;;;;;;;;;10542197;28;20046;-78
2021/11/17 07:27:44;;;;;;;79.03;35.67;;;;;;;;;;10523652;28;20518;-78
2021/11/17 07:32:45;;;;;;;51.20;33.35;;;;;;;;;;10541796;28;20325;-78
2021/11/17 07:37:45;;;;;;;64.30;36.15;;;;;;;;;;10541960;28;20288;-79
2021/11/17 07:42:45;;;;;;;63.25;33.72;;;;;;;;;;10542161;28;20024;-78
2021/11/17 07:47:45;;;;;;;60.65;35.55;;;;;;;;;;10542039;28;20102;-78
2021/11/17 07:52:45;;;;;;;73.18;37.60;;;;;;;;;;10542767;28;20028;-78
2021/11/17 07:57:46;;;;;;;65.68;35.00;;;;;;;;;;10540692;28;20052;-78
2021/11/17 08:02:47;;;;;;;53.95;35.55;;;;;;;;;;10522384;28;20027;-78
2021/11/17 08:07:47;;;;;;;52.40;31.73;;;;;;;;;;10541253;28;20056;-78
2021/11/17 08:12:47;;;;;;;60.55;33.75;;;;;;;;;;10522330;28;20123;-79
2021/11/17 08:17:47;;;;;;;69.18;39.85;;;;;;;;;;10540557;28;20377;-79
2021/11/17 08:22:49;;;;;;;61.33;36.28;;;;;;;;;;10539879;28;20031;-79
2021/11/17 08:27:49;;;;;;;62.90;34.13;;;;;;;;;;10539422;28;20020;-79
2021/11/17 08:32:50;;;;;;;53.20;31.48;;;;;;;;;;10521758;28;20111;-79
2021/11/17 08:37:50;;;;;;;64.28;33.83;;;;;;;;;;10539459;28;20236;-78
2021/11/17 08:42:51;;;;;;;64.10;33.22;;;;;;;;;;10529812;28;20020;-77
2021/11/17 08:47:51;;;;;;;65.03;34.53;;;;;;;;;;10530411;28;20020;-77
2021/11/17 08:52:51;;;;;;;72.65;34.50;;;;;;;;;;10540184;28;20047;-79
2021/11/17 08:57:52;;;;;;;58.47;30.90;;;;;;;;;;10504212;28;20032;-79
2021/11/17 09:02:52;;;;;;;55.75;28.10;;;;;;;;;;10504126;28;20094;-78
2021/11/17 09:07:53;;;;;;;76.93;31.85;;;;;;;;;;10520698;28;20044;-79
2021/11/17 09:12:53;;;;;;;39.47;23.73;;;;;;;;;;10544027;28;20055;-78
2021/11/17 09:17:54;;;;;;;36.75;19.88;;;;;;;;;;10529542;28;20028;-78
2021/11/17 09:22:54;;;;;;;12.85;9.43;;;;;;;;;;10512467;28;20055;-79
2021/11/17 09:27:55;;;;;;;13.27;7.05;;;;;;;;;;10527830;28;20028;-78
2021/11/17 09:32:56;;;;;;;13.73;5.57;;;;;;;;;;10528635;28;20150;-78
2021/11/17 09:37:56;;;;;;;10.45;4.40;;;;;;;;;;10528505;28;20046;-78
2021/11/17 09:42:56;;;;;;;11.38;4.30;;;;;;;;;;10528386;28;20111;-78
2021/11/17 09:47:57;;;;;;;7.65;4.53;;;;;;;;;;10546245;28;20032;-79
2021/11/17 09:52:57;;;;;;;22.25;5.70;;;;;;;;;;10527916;28;20032;-78
2021/11/17 09:57:59;;;;;;;11.35;4.07;;;;;;;;;;10545471;28;20467;-78
2021/11/17 10:03:05;;;;;;;11.57;4.93;;;;;;;;;;10527786;28;20024;-79
2021/11/17 10:08:21;;;;;;;6.93;3.33;;;;;;;;;;10527065;28;20051;-79
2021/11/17 10:13:25;;;;;;;16.93;4.23;;;;;;;;;;10512515;28;20526;-79
2021/11/17 10:18:33;;;;;;;20.70;4.63;;;;;;;;;;10527222;28;20496;-79
2021/11/17 10:23:35;;;;;;;12.00;4.57;;;;;;;;;;10545116;28;20394;-79
2021/11/17 10:28:36;;;;;;;15.02;5.22;;;;;;;;;;10544692;28;20016;-79
2021/11/17 10:33:47;;;;;;;14.10;4.65;;;;;;;;;;10526623;28;20161;-79
2021/11/17 10:38:50;;;;;;;23.27;6.00;;;;;;;;;;10544066;28;20032;-79
2021/11/17 10:43:52;;;;;;;12.70;4.40;;;;;;;;;;10525917;28;20020;-79
2021/11/17 10:48:52;;;;;;;18.25;4.80;;;;;;;;;;10544169;28;20106;-79
2021/11/17 10:53:54;;;;;;;13.15;5.68;;;;;;;;;;10543508;28;20662;-79
2021/11/17 10:58:56;;;;;;;5.95;3.83;;;;;;;;;;10524866;28;20473;-78
2021/11/17 11:04:00;;;;;;;14.27;4.13;;;;;;;;;;10543407;28;20038;-79
2021/11/17 11:09:06;;;;;;;9.23;4.38;;;;;;;;;;10525293;28;20055;-78
2021/11/17 11:14:11;;;;;;;16.25;4.43;;;;;;;;;;10546801;28;20421;-78
2021/11/17 11:19:12;;;;;;;16.85;5.60;;;;;;;;;;10559045;28;20050;-79
2021/11/17 11:24:18;;;;;;;17.50;5.95;;;;;;;;;;10564160;28;20024;-79
2021/11/17 11:29:21;;;;;;;3.55;2.88;;;;;;;;;;10542149;28;20031;-78
2021/11/17 11:34:30;;;;;;;10.13;4.32;;;;;;;;;;10541183;28;20086;-78
2021/11/17 11:39:32;;;;;;;11.43;4.22;;;;;;;;;;10541972;28;20034;-78
2021/11/17 11:44:33;;;;;;;10.93;3.75;;;;;;;;;;10507283;28;20020;-79
2021/11/17 11:49:47;;;;;;;10.25;3.72;;;;;;;;;;10523119;28;20453;-78
2021/11/17 11:54:51;;;;;;;6.47;4.18;;;;;;;;;;10505588;28;20031;-78
2021/11/17 11:59:57;;;;;;;10.88;3.22;;;;;;;;;;10523195;28;20032;-78
2021/11/17 12:05:01;;;;;;;17.87;4.47;;;;;;;;;;10540504;28;20059;-78
2021/11/17 12:10:01;;;;;;;9.32;4.32;;;;;;;;;;10522637;28;20461;-78
2021/11/17 12:15:13;;;;;;;21.05;4.88;;;;;;;;;;10540395;28;20040;-78
2021/11/17 12:20:24;;;;;;;11.15;4.05;;;;;;;;;;10540296;28;20484;-78
2021/11/17 12:25:29;;;;;;;10.50;4.47;;;;;;;;;;10539760;28;20391;-78
2021/11/17 12:30:40;;;;;;;12.43;4.07;;;;;;;;;;10540274;28;20039;-78
2021/11/17 12:35:43;;;;;;;8.60;4.25;;;;;;;;;;10521553;28;20043;-78
2021/11/17 12:40:51;;;;;;;9.43;3.33;;;;;;;;;;10504814;28;20035;-77
2021/11/17 12:46:00;;;;;;;14.98;4.30;;;;;;;;;;10539106;28;20342;-78
2021/11/17 12:51:02;;;;;;;19.25;5.03;;;;;;;;;;10521546;28;20108;-78
2021/11/17 12:56:11;;;;;;;13.90;5.25;;;;;;;;;;10520548;28;20032;-77
2021/11/17 13:01:20;;;;;;;17.70;5.40;;;;;;;;;;10521235;28;20031;-78
2021/11/17 13:06:22;;;;;;;16.38;4.80;;;;;;;;;;10503914;28;20056;-77
2021/11/17 13:11:23;;;;;;;24.00;4.55;;;;;;;;;;10538908;28;20051;-77
2021/11/17 13:16:25;;;;;;;20.25;4.38;;;;;;;;;;10520619;28;20032;-78
2021/11/17 13:21:29;;;;;;;19.27;5.75;;;;;;;;;;10520451;28;20031;-77
2021/11/17 13:26:31;;;;;;;11.20;5.25;;;;;;;;;;10520370;28;20115;-77
2021/11/17 13:31:35;;;;;;;17.45;3.78;;;;;;;;;;10520402;28;20060;-77
2021/11/17 13:36:48;;;;;;;14.40;4.45;;;;;;;;;;10519612;28;20156;-78
2021/11/17 13:41:49;;;;;;;14.27;3.97;;;;;;;;;;10538550;28;20131;-77
2021/11/17 13:46:51;;;;;;;16.33;3.75;;;;;;;;;;10521391;28;20016;-78
2021/11/17 13:51:52;;;;;;;11.65;3.22;;;;;;;;;;10546091;28;20028;-77
2021/11/17 13:56:52;;;;;;;10.23;3.80;;;;;;;;;;10542057;28;20039;-77
2021/11/17 14:01:56;;;;;;;7.82;3.90;;;;;;;;;;10530568;28;20063;-77
2021/11/17 14:06:56;;;;;;;25.45;3.85;;;;;;;;;;10528396;28;20056;-77
2021/11/17 14:11:57;;;;;;;12.73;3.78;;;;;;;;;;10527692;28;20143;-77
2021/11/17 14:16:57;;;;;;;7.20;3.17;;;;;;;;;;10527020;28;20377;-77
2021/11/17 14:21:57;;;;;;;14.55;6.32;;;;;;;;;;10526581;28;20828;-77
2021/11/17 14:26:58;;;;;;;16.60;5.20;;;;;;;;;;10526112;28;20031;-77
2021/11/17 14:32:01;;;;;;;15.35;3.95;;;;;;;;;;10544486;28;20019;-77
2021/11/17 14:37:05;;;;;;;18.00;3.90;;;;;;;;;;10509411;28;20043;-77
2021/11/17 14:42:05;;;;;;;14.27;5.85;;;;;;;;;;10509672;28;20084;-77
2021/11/17 14:47:05;;;;;;;3.70;3.00;;;;;;;;;;10509564;28;20115;-77
2021/11/17 14:52:08;;;;;;;9.52;3.47;;;;;;;;;;10525693;28;20032;-76
2021/11/17 14:57:08;;;;;;;18.83;3.90;;;;;;;;;;10508206;28;20073;-76
2021/11/17 15:02:08;;;;;;;10.73;4.07;;;;;;;;;;10543694;28;20473;-77
2021/11/17 15:07:10;;;;;;;14.45;3.88;;;;;;;;;;10509912;28;20313;-77
2021/11/17 15:12:12;;;;;;;10.73;3.58;;;;;;;;;;10508759;28;20516;-76
2021/11/17 15:17:12;;;;;;;14.90;4.90;;;;;;;;;;10507793;28;20027;-76
2021/11/17 15:22:13;;;;;;;9.50;3.85;;;;;;;;;;10524382;28;20028;-76
2021/11/17 15:27:26;;;;;;;23.27;5.45;;;;;;;;;;10523795;28;20441;-77
2021/11/17 15:32:26;;;;;;;24.70;5.32;;;;;;;;;;10542287;28;20111;-76
2021/11/17 15:37:26;;;;;;;6.78;3.65;;;;;;;;;;10542207;28;20126;-76
2021/11/17 15:42:27;;;;;;;38.00;6.03;;;;;;;;;;10523614;28;20044;-76
2021/11/17 15:47:27;;;;;;;13.48;4.60;;;;;;;;;;10523335;28;20028;-76
2021/11/17 15:52:27;;;;;;;12.50;5.40;;;;;;;;;;10523311;28;20031;-76
2021/11/17 15:57:27;;;;;;;9.45;3.80;;;;;;;;;;10522531;28;20043;-76
2021/11/17 16:02:27;;;;;;;18.92;4.53;;;;;;;;;;10523052;28;20039;-76
2021/11/17 16:07:28;;;;;;;19.17;5.85;;;;;;;;;;10540955;28;20385;-76
2021/11/17 16:12:28;;;;;;;21.20;5.78;;;;;;;;;;10540700;28;20028;-77
2021/11/17 16:17:29;;;;;;;8.57;3.13;;;;;;;;;;10506418;28;20494;-76
2021/11/17 16:22:33;;;;;;;8.75;4.95;;;;;;;;;;10545824;28;20484;-76
2021/11/17 16:27:34;;;;;;;20.95;5.57;;;;;;;;;;10546139;28;20020;-76
2021/11/17 16:32:35;;;;;;;13.10;5.18;;;;;;;;;;10550842;28;20024;-76
2021/11/17 16:37:35;;;;;;;5.05;3.45;;;;;;;;;;10522256;28;20028;-76
2021/11/17 16:42:36;;;;;;;16.38;3.88;;;;;;;;;;10521745;28;20047;-76
2021/11/17 16:47:38;;;;;;;12.13;3.85;;;;;;;;;;10521666;28;20445;-76
2021/11/17 16:52:41;;;;;;;7.88;3.63;;;;;;;;;;10539707;28;20031;-76
2021/11/17 16:57:41;;;;;;;9.20;4.72;;;;;;;;;;10521521;28;20027;-76
2021/11/17 17:02:41;;;;;;;6.03;3.65;;;;;;;;;;10539424;28;20032;-76
2021/11/17 17:07:41;;;;;;;5.85;3.47;;;;;;;;;;10538932;28;20162;-76
2021/11/17 17:12:42;;;;;;;30.35;5.78;;;;;;;;;;10504804;28;20115;-76
2021/11/17 17:17:42;;;;;;;20.70;5.85;;;;;;;;;;10521007;28;20027;-76
2021/11/17 17:22:43;;;;;;;15.10;5.25;;;;;;;;;;10520813;28;20032;-76
2021/11/17 17:27:43;;;;;;;11.52;4.72;;;;;;;;;;10538366;28;20016;-76
2021/11/17 17:32:43;;;;;;;13.88;5.90;;;;;;;;;;10541679;28;20473;-76
2021/11/17 17:37:43;;;;;;;21.30;5.60;;;;;;;;;;10546775;28;20111;-76
2021/11/17 17:42:44;;;;;;;16.70;4.63;;;;;;;;;;10528370;28;20492;-76
2021/11/17 17:47:44;;;;;;;14.45;4.82;;;;;;;;;;10546735;28;20387;-76
2021/11/17 17:52:44;;;;;;;10.80;3.97;;;;;;;;;;10527926;28;20031;-77
2021/11/17 17:57:45;;;;;;;7.32;4.63;;;;;;;;;;10545697;28;20037;-76
2021/11/17 18:02:45;;;;;;;13.68;5.43;;;;;;;;;;10545892;28;20036;-76
2021/11/17 18:07:45;;;;;;;16.77;5.43;;;;;;;;;;10527800;28;20050;-77
2021/11/17 18:12:46;;;;;;;12.75;5.40;;;;;;;;;;10546164;28;20054;-76
2021/11/17 18:17:46;;;;;;;8.93;3.72;;;;;;;;;;10545549;28;20081;-76
2021/11/17 18:22:46;;;;;;;12.43;4.38;;;;;;;;;;10545118;28;20039;-76
2021/11/17 18:27:46;;;;;;;16.85;4.90;;;;;;;;;;10545038;28;20036;-76
2021/11/17 18:32:47;;;;;;;14.32;4.43;;;;;;;;;;10510096;28;20041;-76
2021/11/17 18:37:47;;;;;;;11.30;3.95;;;;;;;;;;10509340;28;20358;-76
2021/11/17 18:42:47;;;;;;;9.02;4.20;;;;;;;;;;10526203;28;20280;-76
2021/11/17 18:47:47;;;;;;;13.68;3.85;;;;;;;;;;10544248;28;20115;-76
2021/11/17 18:52:49;;;;;;;14.45;4.30;;;;;;;;;;10543861;28;20032;-75
2021/11/17 18:57:49;;;;;;;13.10;3.92;;;;;;;;;;10544694;28;20027;-76
2021/11/17 19:02:51;;;;;;;14.68;5.47;;;;;;;;;;10547301;28;20032;-75
2021/11/17 19:07:51;;;;;;;23.50;4.75;;;;;;;;;;10509061;28;20048;-76
2021/11/17 19:12:51;;;;;;;13.95;4.85;;;;;;;;;;10543897;28;20038;-76
2021/11/17 19:17:51;;;;;;;15.13;4.55;;;;;;;;;;10542727;28;20422;-76
2021/11/17 19:22:51;;;;;;;23.05;4.68;;;;;;;;;;10543082;28;20468;-76
2021/11/17 19:27:52;;;;;;;11.15;4.00;;;;;;;;;;10507760;28;20031;-76
2021/11/17 19:32:52;;;;;;;19.13;4.85;;;;;;;;;;10542144;28;20028;-76
2021/11/17 19:37:52;;;;;;;9.32;4.43;;;;;;;;;;10541872;28;20031;-77
2021/11/17 19:42:53;;;;;;;16.55;5.13;;;;;;;;;;10541668;28;20036;-75
2021/11/17 19:47:53;;;;;;;10.52;4.55;;;;;;;;;;10541981;28;20483;-75
2021/11/17 19:52:53;;;;;;;10.15;4.47;;;;;;;;;;10538977;28;20031;-74
2021/11/17 19:57:54;;;;;;;15.27;6.13;;;;;;;;;;10496145;28;20066;-75
2021/11/17 20:02:54;;;;;;;11.35;4.03;;;;;;;;;;10481546;28;20057;-75
2021/11/17 20:07:54;;;;;;;16.88;6.40;;;;;;;;;;10498354;28;20048;-75
2021/11/17 20:12:55;;;;;;;24.75;5.40;;;;;;;;;;10497525;28;20104;-77
2021/11/17 20:17:55;;;;;;;13.32;4.63;;;;;;;;;;10498003;28;20020;-73
2021/11/17 20:22:55;;;;;;;10.63;4.38;;;;;;;;;;10498687;28;20115;-74
2021/11/17 20:27:56;;;;;;;20.25;5.80;;;;;;;;;;10479685;28;20028;-74
2021/11/17 20:32:56;;;;;;;7.45;4.55;;;;;;;;;;10497716;28;20028;-74
2021/11/17 20:37:57;;;;;;;4.90;4.00;;;;;;;;;;10497672;28;20024;-74
2021/11/17 20:42:58;;;;;;;9.32;5.10;;;;;;;;;;10479687;28;20675;-74
2021/11/17 20:48:02;;;;;;;25.02;6.00;;;;;;;;;;10479977;28;20013;-74
2021/11/17 20:53:02;;;;;;;9.32;5.95;;;;;;;;;;10479570;28;20024;-75
2021/11/17 20:58:02;;;;;;;10.82;6.53;;;;;;;;;;10495546;28;20468;-78
2021/11/17 21:03:02;;;;;;;17.15;6.53;;;;;;;;;;10479439;28;20377;-74
2021/11/17 21:08:03;;;;;;;14.00;6.72;;;;;;;;;;10516956;28;20063;-76
2021/11/17 21:13:03;;;;;;;15.90;6.07;;;;;;;;;;10538948;28;20077;-75
2021/11/17 21:18:03;;;;;;;21.60;5.85;;;;;;;;;;10539154;28;20480;-75
2021/11/17 21:23:13;;;;;;;33.08;7.85;;;;;;;;;;10539061;28;20465;-75
2021/11/17 21:28:14;;;;;;;18.58;6.88;;;;;;;;;;10522340;28;20456;-75
2021/11/17 21:33:14;;;;;;;26.40;6.25;;;;;;;;;;10542874;28;20054;-75
2021/11/17 21:38:14;;;;;;;12.82;5.90;;;;;;;;;;10539187;28;20028;-75
2021/11/17 21:43:14;;;;;;;18.67;5.93;;;;;;;;;;10538658;28;20056;-75
2021/11/17 21:48:15;;;;;;;15.32;6.97;;;;;;;;;;10538763;28;20439;-75
2021/11/17 21:53:16;;;;;;;26.60;6.55;;;;;;;;;;10538591;28;20020;-75
2021/11/17 21:58:18;;;;;;;10.27;5.85;;;;;;;;;;10537776;28;20023;-75
2021/11/17 22:03:18;;;;;;;18.40;6.57;;;;;;;;;;10538447;28;20115;-75
2021/11/17 22:08:22;;;;;;;13.10;7.03;;;;;;;;;;10519929;28;20139;-75
2021/11/17 22:13:22;;;;;;;16.60;5.88;;;;;;;;;;10538345;28;20055;-75
2021/11/17 22:18:22;;;;;;;11.17;5.70;;;;;;;;;;10538397;28;20412;-76
2021/11/17 22:23:27;;;;;;;23.85;5.95;;;;;;;;;;10545210;28;20257;-75
2021/11/17 22:28:27;;;;;;;19.17;6.05;;;;;;;;;;10527146;28;20475;-75
2021/11/17 22:33:28;;;;;;;14.25;6.78;;;;;;;;;;10526738;28;20030;-75
2021/11/17 22:38:28;;;;;;;20.42;5.05;;;;;;;;;;10527630;28;20475;-75
2021/11/17 22:43:29;;;;;;;17.83;5.53;;;;;;;;;;10545691;28;20036;-75
2021/11/17 22:48:29;;;;;;;21.73;7.95;;;;;;;;;;10526295;28;20540;-76
2021/11/17 22:53:29;;;;;;;16.33;5.78;;;;;;;;;;10544544;28;20028;-76
2021/11/17 22:58:30;;;;;;;23.80;7.87;;;;;;;;;;10543268;28;20044;-76
2021/11/17 23:03:30;;;;;;;27.98;6.88;;;;;;;;;;10543696;28;20802;-75
2021/11/17 23:08:31;;;;;;;26.98;6.55;;;;;;;;;;10543969;28;20070;-76
2021/11/17 23:13:31;;;;;;;32.10;7.38;;;;;;;;;;10525116;28;20107;-76
2021/11/17 23:18:31;;;;;;;19.33;8.00;;;;;;;;;;10524961;28;20401;-76
2021/11/17 23:23:34;;;;;;;17.13;7.20;;;;;;;;;;10542788;28;20424;-76
2021/11/17 23:28:34;;;;;;;39.00;9.45;;;;;;;;;;10524026;28;20745;-76
2021/11/17 23:33:36;;;;;;;14.05;5.57;;;;;;;;;;10542879;28;20036;-76
2021/11/17 23:38:36;;;;;;;19.42;5.15;;;;;;;;;;10524242;28;20024;-76
2021/11/17 23:43:37;;;;;;;17.33;7.07;;;;;;;;;;10542281;28;20140;-76
2021/11/17 23:48:37;;;;;;;26.00;7.15;;;;;;;;;;10541644;28;20261;-76
2021/11/17 23:53:38;;;;;;;26.05;6.38;;;;;;;;;;10525028;28;20484;-76
2021/11/17 23:58:41;;;;;;;49.88;10.13;;;;;;;;;;10522879;28;20028;-76
